ADDS METAR Data INFO
IDs: Format: Raw Decoded Include TAF

Data at: 0608 UTC 25 Jun 2018

KF44 250555Z AUTO 17010G14KT 10SM CLR 27/22 A2990 RMK AO2
KF44 250535Z AUTO 17010G14KT 10SM CLR 27/22 A2989 RMK AO2
KF44 250515Z AUTO 17008KT 10SM CLR 27/22 A2989 RMK AO2
KF44 250455Z AUTO 17010G14KT 10SM CLR 27/22 A2990 RMK AO2
KF44 250435Z AUTO 16010G14KT 10SM CLR 28/22 A2989 RMK AO2
KF44 250415Z AUTO 16008KT 10SM CLR 28/22 A2990 RMK AO2
KF44 250355Z AUTO 15007KT 10SM CLR 28/22 A2990 RMK AO2
KF44 250335Z AUTO 16007KT 10SM CLR 29/22 A2990 RMK AO2
KF44 250315Z AUTO 15005KT 10SM CLR 29/23 A2989 RMK AO2
KF44 250255Z AUTO 15005KT 10SM CLR 29/23 A2989 RMK AO2
KF44 250235Z AUTO 15006KT 10SM CLR 30/23 A2988 RMK AO2
KF44 250215Z AUTO 14007KT 10SM CLR 30/22 A2988 RMK AO2
KF44 250155Z AUTO 14003KT 10SM CLR 30/22 A2987 RMK AO2
KF44 250135Z AUTO 15005KT 10SM CLR 31/22 A2986 RMK AO2 LTG DSNT NE
KF44 250115Z AUTO 14004KT 10SM CLR 31/21 A2986 RMK AO2
KF44 250055Z AUTO 15005KT 10SM CLR 32/21 A2987 RMK AO2 LTG DSNT NE
KF44 250035Z AUTO 16008KT 10SM CLR 33/21 A2987 RMK AO2
KF44 250015Z AUTO 16007KT 10SM CLR 32/20 A2987 RMK AO2
KF44 242355Z AUTO 17015G20KT 10SM CLR 33/20 A2986 RMK AO2
KF44 242335Z AUTO 18010G18KT 10SM CLR 34/21 A2985 RMK AO2
KF44 242315Z AUTO 17016G19KT 10SM CLR 34/21 A2984 RMK AO2
KF44 242255Z AUTO 16010G16KT 10SM SCT050 SCT065 34/21 A2984 RMK AO2
KF44 242235Z AUTO 16013G21KT 10SM SCT050 BKN060 34/22 A2984 RMK AO2
KF44 242215Z AUTO 17012G18KT 10SM SCT050 BKN060 33/21 A2984 RMK AO2
KF44 242155Z AUTO 16014G21KT 10SM BKN050 34/22 A2984 RMK AO2
KF44 242135Z AUTO 17012G20KT 10SM SCT050 35/21 A2984 RMK AO2
KF44 242115Z AUTO 18015G22KT 10SM SCT050 35/21 A2984 RMK AO2
KF44 242055Z AUTO 18016G20KT 10SM BKN050 35/21 A2984 RMK AO2
KF44 242035Z AUTO 17014G21KT 10SM BKN050 34/21 A2984 RMK AO2
KF44 242015Z AUTO 16012G17KT 10SM BKN048 BKN060 33/21 A2984 RMK AO2
KF44 241955Z AUTO 19010G16KT 160V220 10SM SCT050 34/21 A2986 RMK AO2
KF44 241935Z AUTO 17011G16KT 10SM SCT050 34/21 A2987 RMK AO2
KF44 241915Z AUTO 17011G18KT 10SM SCT048 33/21 A2987 RMK AO2
KF44 241855Z AUTO 17015G20KT 10SM SCT046 SCT050 33/21 A2988 RMK AO2
KF44 241835Z AUTO 19013G17KT 10SM SCT044 SCT050 33/21 A2989 RMK AO2
KF44 241815Z AUTO 19008G16KT 10SM SCT050 33/22 A2989 RMK AO2
KF44 241755Z AUTO 19007G15KT 10SM CLR 32/22 A2989 RMK AO2
KF44 241735Z AUTO 20006KT 10SM SCT038 SCT046 SCT050 32/22 A2990 RMK AO2
KF44 241715Z AUTO 19005KT 10SM SCT035 SCT041 SCT050 31/22 A2990 RMK AO2
KF44 241655Z AUTO 21006KT 10SM SCT035 SCT041 SCT049 30/22 A2991 RMK AO2
KF44 241635Z AUTO 20007KT 160V230 10SM SCT032 SCT039 SCT046 31/22 A2991 RMK AO2
KF44 241615Z AUTO 18007KT 10SM BKN030 BKN039 BKN046 30/22 A2992 RMK AO2
KF44 241555Z AUTO 18009KT 10SM BKN032 BKN041 30/22 A2992 RMK AO2
KF44 241535Z AUTO 20006KT 10SM SCT032 BKN045 29/22 A2992 RMK AO2
KF44 241515Z AUTO 19007KT 10SM SCT028 BKN035 OVC044 28/22 A2991 RMK AO2 LTG DSNT NE
KF44 241455Z AUTO 21005KT 10SM BKN026 BKN033 OVC041 28/22 A2992 RMK AO2 LTG DSNT NE
KF44 241435Z AUTO 20005KT 10SM BKN026 OVC035 28/22 A2991 RMK AO2
KF44 241415Z AUTO 19007G17KT 10SM OVC022 28/22 A2990 RMK AO2
KF44 241355Z AUTO 19006KT 10SM BKN020 OVC027 27/22 A2989 RMK AO2
KF44 241335Z AUTO 19005KT 10SM OVC020 27/22 A2989 RMK AO2
KF44 241315Z AUTO 20004KT 10SM OVC018 26/22 A2989 RMK AO2
KF44 241255Z AUTO 19004KT 10SM OVC016 26/22 A2988 RMK AO2
KF44 241235Z AUTO 21006KT 10SM OVC014 26/22 A2986 RMK AO2
KF44 241215Z AUTO 19010G17KT 160V220 10SM OVC014 26/22 A2982 RMK AO2
KF44 241155Z AUTO 18013G18KT 10SM OVC014 26/22 A2980 RMK AO2
KF44 241135Z AUTO 17013G22KT 10SM OVC014 26/22 A2979 RMK AO2
KF44 241115Z AUTO 17014G20KT 160V220 10SM OVC014 26/22 A2979 RMK AO2
KF44 241055Z AUTO 17012G21KT 10SM OVC014 26/23 A2979 RMK AO2
KF44 241035Z AUTO 17012G21KT 10SM OVC014 26/23 A2979 RMK AO2
KF44 241015Z AUTO 18016G21KT 10SM BKN014 25/22 A2977 RMK AO2
KF44 240955Z AUTO 18012G22KT 10SM SCT014 26/22 A2978 RMK AO2
KF44 240935Z AUTO 17013G19KT 10SM SCT014 26/23 A2978 RMK AO2
KF44 240915Z AUTO 16013G20KT 10SM CLR 26/22 A2979 RMK AO2
KF44 240855Z AUTO 17013G19KT 10SM CLR 26/23 A2980 RMK AO2
KF44 240835Z AUTO 17012G16KT 10SM CLR 26/23 A2982 RMK AO2
KF44 240815Z AUTO 18010G14KT 10SM CLR 26/22 A2984 RMK AO2
KF44 240755Z AUTO 18008G15KT 10SM SCT045 26/22 A2986 RMK AO2
KF44 240735Z AUTO 19008KT 10SM SCT045 27/23 A2987 RMK AO2
KF44 240715Z AUTO 18009KT 10SM SCT021 BKN027 BKN033 27/23 A2987 RMK AO2
KF44 240655Z AUTO 20005KT 10SM SCT017 BKN023 OVC037 27/23 A2988 RMK AO2
KF44 240635Z AUTO 19007KT 10SM BKN020 BKN031 BKN042 27/23 A2986 RMK AO2 LTG DSNT W
KF44 240615Z AUTO 18008G15KT 10SM SCT020 SCT037 SCT045 27/23 A2985 RMK AO2
KF44 240555Z AUTO 18007KT 10SM SCT033 SCT042 27/23 A2986 RMK AO2
KF44 240535Z AUTO 16008KT 10SM SCT044 27/23 A2984 RMK AO2 LTG DSNT W
KF44 240515Z AUTO 18007KT 10SM SCT023 BKN032 BKN042 28/23 A2986 RMK AO2
KF44 240455Z AUTO 17008KT 10SM SCT023 SCT029 BKN042 28/23 A2984 RMK AO2
KF44 240435Z AUTO 16010G14KT 10SM SCT026 SCT038 SCT044 28/23 A2982 RMK AO2
KF44 240415Z AUTO 16009KT 10SM SCT026 SCT040 BKN046 29/23 A2981 RMK AO2
KF44 240355Z AUTO 17007KT 10SM SCT040 OVC046 29/23 A2980 RMK AO2
KF44 240335Z AUTO 16007KT 10SM OVC044 29/23 A2979 RMK AO2
KF44 240315Z AUTO 16004KT 10SM BKN044 29/22 A2978 RMK AO2
KF44 240255Z AUTO 16004KT 10SM BKN044 29/22 A2977 RMK AO2
KF44 240235Z AUTO 15003KT 10SM SCT046 29/22 A2977 RMK AO2
KF44 240215Z AUTO 00000KT 10SM BKN046 30/22 A2977 RMK AO2
KF44 240155Z AUTO 14003KT 10SM BKN046 30/22 A2976 RMK AO2
KF44 240135Z AUTO 13003KT 10SM BKN048 30/22 A2976 RMK AO2
KF44 240115Z AUTO 16005KT 10SM CLR 31/21 A2976 RMK AO2
KF44 240055Z AUTO 16007KT 10SM CLR 32/21 A2976 RMK AO2
KF44 240035Z AUTO 17008G15KT 10SM CLR 32/21 A2976 RMK AO2
KF44 240015Z AUTO 16011G14KT 10SM CLR 32/21 A2976 RMK AO2
KF44 232355Z AUTO 17007KT 10SM CLR 33/21 A2976 RMK AO2
KF44 232335Z AUTO 16010G15KT 10SM CLR 33/21 A2976 RMK AO2
KF44 232315Z AUTO 18009G17KT 10SM CLR 33/21 A2976 RMK AO2
KF44 232255Z AUTO 17009G16KT 10SM CLR 33/21 A2976 RMK AO2
KF44 232235Z AUTO 16011G16KT 10SM CLR 33/21 A2977 RMK AO2
KF44 232215Z AUTO 17012G18KT 10SM CLR 33/21 A2978 RMK AO2
KF44 232155Z AUTO 16013G17KT 10SM CLR 33/21 A2978 RMK AO2
KF44 232135Z AUTO 16010G17KT 10SM CLR 33/21 A2978 RMK AO2
KF44 232115Z AUTO 18013G18KT 10SM CLR 33/20 A2979 RMK AO2
KF44 232055Z AUTO 18009G15KT 10SM CLR 33/20 A2979 RMK AO2
KF44 232035Z AUTO 17011G17KT 10SM CLR 33/21 A2980 RMK AO2
KF44 232015Z AUTO 16012G17KT 10SM CLR 33/21 A2981 RMK AO2
KF44 231955Z AUTO 16012G19KT 10SM CLR 33/21 A2981 RMK AO2
KF44 231935Z AUTO 17009G14KT 10SM CLR 32/21 A2982 RMK AO2
KF44 231915Z AUTO 16013KT 10SM CLR 32/22 A2983 RMK AO2
KF44 231855Z AUTO 15009KT 10SM CLR 32/22 A2984 RMK AO2
KF44 231835Z AUTO 16012KT 10SM SCT039 32/22 A2984 RMK AO2
KF44 231815Z AUTO 17011G15KT 10SM CLR 32/22 A2986 RMK AO2